Time;durP1;ratioP1;P1;durP2;ratioP2;P2;SDS_P1;SDS_P2;PMS_P1;PMS_P2;Temp;Humidity;BMP_temperature;BMP_pressure;BME280_temperature;BME280_humidity;BME280_pressure;Samples;Min_cycle;Max_cycle;Signal;HPM_P1;HPM_P2
2022/03/23 00:01:09;;;;;;;26.80;18.70;;;8.80;66.40;;;;;;5021962;28;20179;-91
2022/03/23 00:03:35;;;;;;;27.20;16.67;;;8.70;66.60;;;;;;5039225;28;20440;-95
2022/03/23 00:06:02;;;;;;;22.17;17.65;;;8.70;66.90;;;;;;5021041;28;20419;-91
2022/03/23 00:08:30;;;;;;;22.45;17.50;;;8.60;66.80;;;;;;5020320;28;20207;-95
2022/03/23 00:10:56;;;;;;;24.33;17.00;;;8.50;67.10;;;;;;5039724;28;20174;-91
2022/03/23 00:13:22;;;;;;;25.35;18.00;;;8.50;66.70;;;;;;5038928;28;20555;-91
2022/03/23 00:15:49;;;;;;;25.15;17.38;;;8.40;66.40;;;;;;5039164;28;20230;-94
2022/03/23 00:18:15;;;;;;;26.58;17.85;;;8.50;65.80;;;;;;5020378;28;20210;-91
2022/03/23 00:20:41;;;;;;;23.92;18.80;;;8.40;65.70;;;;;;5020932;28;20170;-91
2022/03/23 00:23:10;;;;;;;26.25;19.10;;;8.40;65.30;;;;;;5038539;28;20222;-91
2022/03/23 00:25:36;;;;;;;23.38;17.58;;;8.40;66.70;;;;;;5021739;28;20178;-95
2022/03/23 00:28:03;;;;;;;27.83;18.30;;;8.40;65.10;;;;;;5021254;28;20633;-94
2022/03/23 00:30:31;;;;;;;25.25;17.73;;;8.40;66.10;;;;;;5021631;28;20174;-91
2022/03/23 00:32:56;;;;;;;24.30;18.73;;;8.40;65.00;;;;;;5021314;28;20256;-91
2022/03/23 00:35:22;;;;;;;29.47;21.53;;;8.40;65.00;;;;;;5022879;28;20608;-90
2022/03/23 00:37:50;;;;;;;26.20;18.77;;;8.40;65.10;;;;;;5023607;28;20687;-95
2022/03/23 00:40:16;;;;;;;29.52;19.33;;;8.40;65.50;;;;;;5042665;28;20408;-91
2022/03/23 00:42:42;;;;;;;26.27;18.77;;;8.30;65.40;;;;;;5040728;28;20230;-91
2022/03/23 00:45:11;;;;;;;25.65;19.60;;;8.30;66.50;;;;;;5031401;28;20249;-93
2022/03/23 00:47:37;;;;;;;25.42;17.90;;;8.20;65.60;;;;;;5050730;28;20378;-93
2022/03/23 00:50:04;;;;;;;25.85;19.45;;;8.20;65.50;;;;;;5022085;28;20551;-93
2022/03/23 00:52:30;;;;;;;29.00;20.08;;;8.10;66.20;;;;;;5033227;28;20209;-94
2022/03/23 00:54:56;;;;;;;24.70;20.00;;;8.10;66.10;;;;;;5025587;28;20181;-93
2022/03/23 00:57:22;;;;;;;26.07;19.87;;;8.00;66.60;;;;;;5026526;28;20952;-91
2022/03/23 00:59:48;;;;;;;32.07;19.53;;;8.00;66.00;;;;;;5031019;28;20422;-93
2022/03/23 01:02:14;;;;;;;25.50;19.60;;;8.00;66.50;;;;;;5031569;28;20229;-91
2022/03/23 01:04:40;;;;;;;24.25;19.25;;;7.90;66.20;;;;;;5025437;28;20245;-91
2022/03/23 01:07:05;;;;;;;27.70;20.70;;;7.90;66.00;;;;;;5046088;28;20667;-95
2022/03/23 01:09:34;;;;;;;34.27;19.80;;;7.90;66.20;;;;;;5020410;28;20179;-93
2022/03/23 01:12:00;;;;;;;28.70;20.15;;;7.90;66.30;;;;;;5020563;28;20253;-92
2022/03/23 01:14:26;;;;;;;26.40;19.97;;;7.90;66.50;;;;;;5037851;28;20171;-91
2022/03/23 01:16:53;;;;;;;30.20;21.55;;;7.90;66.00;;;;;;5019413;28;20441;-93
2022/03/23 01:19:22;;;;;;;28.75;19.50;;;7.80;65.90;;;;;;5020064;28;20186;-93
2022/03/23 01:21:48;;;;;;;27.50;20.50;;;7.80;65.80;;;;;;5022571;28;20222;-92
2022/03/23 01:24:15;;;;;;;44.13;30.10;;;7.80;65.60;;;;;;5021398;28;20182;-95
2022/03/23 01:26:40;;;;;;;40.47;28.40;;;7.80;65.40;;;;;;5020781;28;20175;-94
2022/03/23 01:29:08;;;;;;;36.53;26.80;;;7.70;66.20;;;;;;5045948;28;20174;-91
2022/03/23 01:31:33;;;;;;;38.88;31.77;;;7.70;66.30;;;;;;5042072;28;20491;-91
2022/03/23 01:34:00;;;;;;;39.30;28.30;;;7.70;65.70;;;;;;5019570;28;20213;-94
2022/03/23 01:36:29;;;;;;;32.63;24.70;;;7.70;65.70;;;;;;5019715;28;20413;-91
2022/03/23 01:38:56;;;;;;;28.20;20.33;;;7.70;65.70;;;;;;5023546;28;20301;-91
2022/03/23 01:41:23;;;;;;;31.90;21.75;;;7.60;66.00;;;;;;5039606;28;20175;-95
2022/03/23 01:43:49;;;;;;;25.63;19.02;;;7.50;66.70;;;;;;5021277;28;20729;-91
2022/03/23 01:46:20;;;;;;;26.08;17.92;;;7.40;66.40;;;;;;5018402;28;20189;-91
2022/03/23 01:48:46;;;;;;;26.05;18.65;;;7.40;66.20;;;;;;5020544;28;20278;-91
2022/03/23 01:51:13;;;;;;;26.25;18.15;;;7.30;66.30;;;;;;5021705;28;20174;-90
2022/03/23 01:53:40;;;;;;;29.80;18.48;;;7.30;66.10;;;;;;5039512;28;20190;-95
2022/03/23 01:56:09;;;;;;;25.42;18.27;;;7.20;65.90;;;;;;5019371;28;20193;-94
2022/03/23 01:58:36;;;;;;;22.80;18.35;;;7.20;65.80;;;;;;5021392;28;20226;-95
2022/03/23 02:01:03;;;;;;;24.55;18.25;;;7.20;65.90;;;;;;5020748;28;20190;-90
2022/03/23 02:03:29;;;;;;;28.00;18.10;;;7.20;66.00;;;;;;5037440;28;20222;-95
2022/03/23 02:05:55;;;;;;;25.70;17.90;;;7.20;65.80;;;;;;5019997;28;20580;-93
2022/03/23 02:08:21;;;;;;;31.53;20.50;;;7.20;66.50;;;;;;5019274;28;20198;-91
2022/03/23 02:10:47;;;;;;;29.73;19.55;;;7.20;67.40;;;;;;5037567;28;20178;-94
2022/03/23 02:13:13;;;;;;;22.75;17.33;;;7.20;67.40;;;;;;5024196;28;20694;-94
2022/03/23 02:15:39;;;;;;;29.47;19.90;;;7.10;67.60;;;;;;5042239;28;20234;-90
2022/03/23 02:18:06;;;;;;;24.80;19.23;;;7.10;67.90;;;;;;5046402;28;20297;-90
2022/03/23 02:20:32;;;;;;;26.05;18.73;;;7.00;67.80;;;;;;5032595;28;20406;-93
2022/03/23 02:22:58;;;;;;;22.55;17.83;;;7.00;67.80;;;;;;5048633;28;20222;-90
2022/03/23 02:25:28;;;;;;;26.33;17.67;;;7.00;68.00;;;;;;5030105;28;20205;-93
2022/03/23 02:27:55;;;;;;;28.27;19.02;;;6.90;68.30;;;;;;5026993;28;20428;-91
2022/03/23 02:30:21;;;;;;;28.15;17.38;;;6.90;68.90;;;;;;5024556;28;20179;-93
2022/03/23 02:32:48;;;;;;;23.98;17.90;;;6.90;68.50;;;;;;5024619;28;20205;-91
2022/03/23 02:35:15;;;;;;;26.33;17.05;;;6.80;68.00;;;;;;5025147;28;20225;-91
2022/03/23 02:37:41;;;;;;;24.55;17.85;;;6.80;68.50;;;;;;5042838;28;20198;-91
2022/03/23 02:40:08;;;;;;;24.50;17.60;;;6.70;68.50;;;;;;5026649;28;20199;-94
2022/03/23 02:42:36;;;;;;;22.85;17.35;;;6.70;69.10;;;;;;5042068;28;20276;-90
2022/03/23 02:45:01;;;;;;;21.17;16.25;;;6.60;69.00;;;;;;5025651;28;20694;-91
2022/03/23 02:47:31;;;;;;;23.63;17.00;;;6.60;69.10;;;;;;5026743;28;20242;-94
2022/03/23 02:49:57;;;;;;;27.27;16.80;;;6.60;69.40;;;;;;5041849;28;20248;-95
2022/03/23 02:52:23;;;;;;;24.20;16.60;;;6.50;69.10;;;;;;5023549;28;20663;-94
2022/03/23 03:03:46;;;;;;;36.90;20.88;;;6.20;70.80;;;;;;5042341;28;20744;-94
2022/03/23 03:06:12;;;;;;;34.57;23.13;;;6.20;70.00;;;;;;5023441;28;20261;-91
2022/03/23 03:08:50;;;;;;;33.57;23.17;;;6.10;70.80;;;;;;5023629;28;20462;-93
2022/03/23 03:11:18;;;;;;;33.10;22.58;;;6.00;70.60;;;;;;5022246;28;20175;-95
2022/03/23 03:13:47;;;;;;;39.70;24.48;;;6.00;70.40;;;;;;5022867;28;20203;-95
2022/03/23 03:16:13;;;;;;;31.73;21.83;;;6.00;71.20;;;;;;5050011;28;20209;-89
2022/03/23 03:18:39;;;;;;;29.07;21.30;;;5.90;70.90;;;;;;5042312;28;20241;-91
2022/03/23 03:21:06;;;;;;;25.20;18.60;;;5.90;71.00;;;;;;5042217;28;20388;-93
2022/03/23 03:23:41;;;;;;;38.72;21.10;;;5.90;70.00;;;;;;5041501;28;20232;-94
2022/03/23 03:26:08;;;;;;;27.92;20.27;;;5.80;71.10;;;;;;5043998;28;20181;-91
2022/03/23 03:28:35;;;;;;;29.98;20.48;;;5.80;70.50;;;;;;5041623;28;20569;-94
2022/03/23 03:31:08;;;;;;;28.38;18.98;;;5.70;70.70;;;;;;5041158;28;20180;-91
2022/03/23 03:33:35;;;;;;;31.67;18.58;;;5.70;70.90;;;;;;5059485;28;20204;-94
2022/03/23 03:36:01;;;;;;;26.05;19.05;;;5.60;71.30;;;;;;5059566;28;20176;-93
2022/03/23 03:38:27;;;;;;;26.63;17.40;;;5.60;71.20;;;;;;5059720;28;20209;-92
2022/03/23 03:40:54;;;;;;;27.10;18.17;;;5.50;70.50;;;;;;5059716;28;20409;-94
2022/03/23 03:43:20;;;;;;;25.58;17.15;;;5.40;70.50;;;;;;5041285;28;20313;-91
2022/03/23 03:45:46;;;;;;;25.20;17.75;;;5.30;70.60;;;;;;5058344;28;20173;-91
2022/03/23 03:48:13;;;;;;;28.40;18.10;;;5.30;70.80;;;;;;5042089;28;20209;-91
2022/03/23 03:50:39;;;;;;;26.60;17.80;;;5.30;71.50;;;;;;5059295;28;20406;-91
2022/03/23 03:53:07;;;;;;;24.83;16.90;;;5.30;72.00;;;;;;5042186;28;20206;-91
2022/03/23 03:55:37;;;;;;;24.70;18.88;;;5.20;72.10;;;;;;5045666;28;20177;-94
2022/03/23 03:58:04;;;;;;;28.05;17.42;;;5.20;72.20;;;;;;5043786;28;20205;-95
2022/03/23 04:00:34;;;;;;;28.00;18.88;;;5.10;72.00;;;;;;5040693;28;20178;-94
2022/03/23 04:03:00;;;;;;;29.95;21.35;;;5.10;72.10;;;;;;5041970;28;20213;-95
2022/03/23 04:05:28;;;;;;;36.13;21.63;;;5.00;72.20;;;;;;5040003;28;20635;-94
2022/03/23 04:07:55;;;;;;;32.03;21.73;;;5.00;72.60;;;;;;5058630;28;20194;-91
2022/03/23 04:10:21;;;;;;;44.75;26.42;;;5.00;72.80;;;;;;5057150;28;20174;-93
2022/03/23 04:12:47;;;;;;;47.50;27.95;;;4.90;72.50;;;;;;5041113;28;20236;-91
2022/03/23 04:15:14;;;;;;;39.07;22.33;;;4.80;72.20;;;;;;5042052;28;20665;-91
2022/03/23 04:17:43;;;;;;;33.72;20.95;;;4.70;72.80;;;;;;5029008;28;20238;-94
2022/03/23 04:20:09;;;;;;;39.63;24.83;;;4.70;73.60;;;;;;5040583;28;20185;-91
2022/03/23 04:22:35;;;;;;;36.78;23.10;;;4.60;73.80;;;;;;5020481;28;20268;-90
2022/03/23 04:25:01;;;;;;;33.73;22.43;;;4.60;73.50;;;;;;5020659;28;20174;-93
2022/03/23 04:27:26;;;;;;;34.60;21.93;;;4.60;73.60;;;;;;5021106;28;20202;-91
2022/03/23 04:29:52;;;;;;;36.37;22.17;;;4.50;73.70;;;;;;5021488;28;20554;-89
2022/03/23 04:32:18;;;;;;;32.60;20.40;;;4.50;73.80;;;;;;5043289;28;20226;-94
2022/03/23 04:34:44;;;;;;;35.78;20.65;;;4.50;73.70;;;;;;5045049;28;20198;-92
2022/03/23 04:37:10;;;;;;;32.77;21.00;;;4.50;73.60;;;;;;5040613;28;20194;-94
2022/03/23 04:39:35;;;;;;;48.63;30.67;;;4.50;73.60;;;;;;5038311;28;20182;-90
2022/03/23 04:42:02;;;;;;;46.20;33.23;;;4.40;73.50;;;;;;5037893;28;20241;-92
2022/03/23 04:44:28;;;;;;;44.25;32.72;;;4.40;73.50;;;;;;5024872;28;20821;-92
2022/03/23 04:46:53;;;;;;;47.80;32.23;;;4.50;73.20;;;;;;5029117;28;20237;-92
2022/03/23 04:49:19;;;;;;;42.27;31.07;;;4.40;73.20;;;;;;5027604;28;20536;-93
2022/03/23 04:51:45;;;;;;;37.43;26.43;;;4.40;73.70;;;;;;5042565;28;20404;-94
2022/03/23 04:54:11;;;;;;;30.60;22.00;;;4.40;73.60;;;;;;5025931;28;20182;-95
2022/03/23 04:56:36;;;;;;;37.17;23.60;;;4.40;73.70;;;;;;5025525;28;20422;-94
2022/03/23 04:59:02;;;;;;;43.67;29.80;;;4.40;73.80;;;;;;5024746;28;20186;-94
2022/03/23 05:01:28;;;;;;;45.03;28.67;;;4.50;73.80;;;;;;5024923;28;20791;-94
2022/03/23 05:03:54;;;;;;;43.13;26.40;;;4.40;73.60;;;;;;5043999;28;20458;-90
2022/03/23 05:06:20;;;;;;;29.23;20.90;;;4.40;73.60;;;;;;5021370;28;20494;-93
2022/03/23 05:08:46;;;;;;;33.88;21.45;;;4.40;73.70;;;;;;5022136;28;20198;-91
2022/03/23 05:11:11;;;;;;;33.60;19.83;;;4.30;74.00;;;;;;5022871;28;20179;-93
2022/03/23 05:13:37;;;;;;;24.30;17.00;;;4.30;73.80;;;;;;5040980;28;20202;-91
2022/03/23 05:16:03;;;;;;;21.57;15.97;;;4.30;73.80;;;;;;5046732;28;20229;-91
2022/03/23 05:18:29;;;;;;;33.72;18.60;;;4.40;74.20;;;;;;5063493;28;20251;-92
2022/03/23 05:20:55;;;;;;;36.60;23.30;;;4.40;74.60;;;;;;5048019;28;20174;-89
2022/03/23 05:23:21;;;;;;;26.63;20.93;;;4.50;74.90;;;;;;5038999;28;20478;-91
2022/03/23 05:25:47;;;;;;;31.23;21.63;;;4.50;75.00;;;;;;5040767;28;20418;-93
2022/03/23 05:28:13;;;;;;;41.10;22.23;;;4.50;75.00;;;;;;5059194;28;20434;-91
2022/03/23 05:30:39;;;;;;;37.03;20.95;;;4.60;75.60;;;;;;5030569;28;20427;-90
2022/03/23 05:33:05;;;;;;;34.33;21.00;;;4.60;74.90;;;;;;5023638;28;20210;-91
2022/03/23 05:35:31;;;;;;;32.83;23.77;;;4.70;75.70;;;;;;5026560;28;20519;-91
2022/03/23 05:37:56;;;;;;;35.03;23.67;;;4.70;74.80;;;;;;5036660;28;20421;-90
2022/03/23 05:40:23;;;;;;;26.27;20.37;;;4.80;75.50;;;;;;5055733;28;20395;-89
2022/03/23 05:42:50;;;;;;;40.97;25.05;;;4.90;75.10;;;;;;5056849;28;20299;-94
2022/03/23 05:45:16;;;;;;;27.58;22.10;;;4.90;74.40;;;;;;5043934;28;20663;-91
2022/03/23 05:47:43;;;;;;;30.40;21.07;;;5.00;74.80;;;;;;5043224;28;20201;-94
2022/03/23 05:50:10;;;;;;;28.80;17.83;;;5.10;74.80;;;;;;5027728;28;20469;-93
2022/03/23 05:52:37;;;;;;;23.63;16.33;;;5.20;74.60;;;;;;5044556;28;20680;-92
2022/03/23 05:55:07;;;;;;;24.35;17.42;;;5.30;74.60;;;;;;5026019;28;20239;-94
2022/03/23 05:57:34;;;;;;;26.00;16.95;;;5.40;74.20;;;;;;5025964;28;20212;-94
2022/03/23 06:00:00;;;;;;;29.20;17.33;;;5.50;74.40;;;;;;5027226;28;20698;-91
2022/03/23 06:02:26;;;;;;;29.57;17.00;;;5.50;74.60;;;;;;5044178;28;20226;-94
2022/03/23 06:04:52;;;;;;;29.17;19.13;;;5.60;74.70;;;;;;5054635;28;20419;-91
2022/03/23 06:07:18;;;;;;;32.97;20.53;;;5.70;74.60;;;;;;5053189;28;20252;-90
2022/03/23 06:09:44;;;;;;;26.70;19.30;;;5.80;74.80;;;;;;5050163;28;20178;-89
2022/03/23 06:12:12;;;;;;;27.05;20.42;;;6.00;75.00;;;;;;5048622;28;20516;-90
2022/03/23 06:14:42;;;;;;;28.27;20.45;;;6.10;75.80;;;;;;5032983;28;20233;-91
2022/03/23 06:17:08;;;;;;;29.00;20.95;;;6.20;76.00;;;;;;5046150;28;20263;-91
2022/03/23 06:19:34;;;;;;;26.85;17.75;;;6.30;76.40;;;;;;5043427;28;20182;-94
2022/03/23 06:22:03;;;;;;;26.20;17.60;;;6.40;76.50;;;;;;5045771;28;20202;-94
2022/03/23 06:24:29;;;;;;;30.02;17.67;;;6.50;76.40;;;;;;5052336;28;20568;-91
2022/03/23 06:26:55;;;;;;;26.87;18.20;;;6.60;76.40;;;;;;5046836;28;20193;-91
2022/03/23 06:29:20;;;;;;;27.93;17.83;;;6.80;76.80;;;;;;5046276;28;20186;-93
2022/03/23 06:31:46;;;;;;;31.00;16.80;;;6.90;76.80;;;;;;5045012;28;20509;-91
2022/03/23 06:34:12;;;;;;;30.27;17.93;;;7.10;77.30;;;;;;5059668;28;20184;-94
2022/03/23 06:36:38;;;;;;;25.17;18.27;;;7.20;77.50;;;;;;5044613;28;20207;-94
2022/03/23 06:39:05;;;;;;;32.33;18.00;;;7.30;78.00;;;;;;5034811;28;20435;-91
2022/03/23 06:41:30;;;;;;;34.22;18.08;;;7.50;78.20;;;;;;5041658;28;20433;-90
2022/03/23 06:43:57;;;;;;;27.70;16.88;;;7.60;78.00;;;;;;5033460;28;20252;-92
2022/03/23 06:46:22;;;;;;;27.42;16.92;;;7.80;78.10;;;;;;5058309;28;20677;-94
2022/03/23 06:48:49;;;;;;;36.30;17.37;;;8.00;77.60;;;;;;5040913;28;20217;-95
2022/03/23 06:51:15;;;;;;;30.25;16.88;;;8.20;77.40;;;;;;5053681;28;20177;-90
2022/03/23 06:53:41;;;;;;;31.20;14.90;;;8.40;77.50;;;;;;5026065;28;20709;-91
2022/03/23 06:56:11;;;;;;;24.60;15.63;;;8.50;77.30;;;;;;5046290;28;20182;-93
2022/03/23 06:58:37;;;;;;;21.85;13.23;;;8.70;77.50;;;;;;5028097;28;20450;-90
2022/03/23 07:01:03;;;;;;;24.13;13.77;;;8.90;77.20;;;;;;5031527;28;20213;-91
2022/03/23 07:03:29;;;;;;;23.87;13.80;;;9.10;77.20;;;;;;5053279;28;20259;-91
2022/03/23 07:05:55;;;;;;;26.10;15.20;;;9.30;76.90;;;;;;5050539;28;20499;-90
2022/03/23 07:11:05;;;;;;;29.08;13.35;;;9.60;76.50;;;;;;5053963;28;20190;-91
2022/03/23 07:13:32;;;;;;;28.20;11.95;;;9.80;76.50;;;;;;5048731;28;20660;-95
2022/03/23 07:16:04;;;;;;;22.45;12.40;;;9.90;76.00;;;;;;5036306;28;20238;-94
2022/03/23 07:18:29;;;;;;;27.05;13.40;;;10.00;75.30;;;;;;5022558;28;20353;-91
2022/03/23 07:21:04;;;;;;;20.60;11.40;;;10.10;75.40;;;;;;5043049;28;20194;-93
2022/03/23 07:23:31;;;;;;;15.48;11.45;;;10.20;75.10;;;;;;5014507;28;20229;-95
2022/03/23 07:25:56;;;;;;;32.25;12.82;;;10.40;74.90;;;;;;5043046;28;20185;-91
2022/03/23 07:28:27;;;;;;;29.37;11.20;;;10.50;75.00;;;;;;5036861;28;20210;-95
2022/03/23 07:30:53;;;;;;;21.10;11.90;;;10.60;74.90;;;;;;5039149;28;20191;-91
2022/03/23 07:33:25;;;;;;;21.70;11.57;;;10.80;75.30;;;;;;5024574;28;20214;-94
2022/03/23 07:35:51;;;;;;;20.80;10.50;;;10.90;74.50;;;;;;5016204;28;20255;-91
2022/03/23 07:38:17;;;;;;;21.50;12.05;;;11.10;74.30;;;;;;5015010;28;20232;-91
2022/03/23 07:40:43;;;;;;;26.08;11.70;;;11.20;73.80;;;;;;5016137;28;20175;-94
2022/03/23 07:43:13;;;;;;;21.10;10.97;;;11.40;73.90;;;;;;5026751;28;20234;-95
2022/03/23 07:45:39;;;;;;;23.75;12.00;;;11.50;73.60;;;;;;5020587;28;20428;-90
2022/03/23 07:48:05;;;;;;;23.67;11.83;;;11.70;73.30;;;;;;5015570;28;20360;-91
2022/03/23 07:50:31;;;;;;;17.40;10.17;;;11.80;73.60;;;;;;5009942;28;20190;-90
2022/03/23 07:53:02;;;;;;;27.50;10.70;;;12.00;73.10;;;;;;5046248;28;20206;-93
2022/03/23 07:55:28;;;;;;;21.30;9.07;;;12.10;72.70;;;;;;5035260;28;20217;-90
2022/03/23 07:57:57;;;;;;;15.70;10.20;;;12.30;72.50;;;;;;5048994;28;20217;-95
2022/03/23 08:00:22;;;;;;;21.15;11.40;;;12.40;72.70;;;;;;5025104;28;20175;-91
2022/03/23 08:02:50;;;;;;;24.00;11.17;;;12.60;72.10;;;;;;5045576;28;20250;-92
2022/03/23 08:05:21;;;;;;;26.53;10.50;;;12.70;71.90;;;;;;5015129;28;20183;-93
2022/03/23 08:07:52;;;;;;;17.13;10.93;;;12.90;71.50;;;;;;5036009;28;20459;-92
2022/03/23 08:10:21;;;;;;;19.75;8.82;;;13.10;71.10;;;;;;5013228;28;20179;-95
2022/03/23 08:12:48;;;;;;;18.23;10.13;;;13.20;71.10;;;;;;5039557;28;20226;-92
2022/03/23 08:15:13;;;;;;;23.73;11.00;;;13.40;70.90;;;;;;5037623;28;20426;-91
2022/03/23 08:17:39;;;;;;;26.00;10.87;;;13.60;70.80;;;;;;5028689;28;20237;-95
2022/03/23 08:22:56;;;;;;;20.13;9.87;;;14.00;69.90;;;;;;5051139;28;20256;-91
2022/03/23 08:25:22;;;;;;;20.87;9.50;;;14.30;69.60;;;;;;5031545;28;20477;-94
2022/03/23 08:27:48;;;;;;;17.40;10.50;;;14.60;68.80;;;;;;5029964;28;20480;-94
2022/03/23 08:30:14;;;;;;;18.23;10.50;;;15.10;68.40;;;;;;5050455;28;20174;-94
2022/03/23 08:32:43;;;;;;;18.40;10.17;;;15.90;67.40;;;;;;5024879;28;20455;-95
2022/03/23 08:35:09;;;;;;;18.27;9.20;;;16.70;65.80;;;;;;5051122;28;20932;-91
2022/03/23 08:37:41;;;;;;;20.20;10.70;;;17.70;63.30;;;;;;5051625;28;20454;-94
2022/03/23 08:40:07;;;;;;;15.17;9.33;;;18.80;62.60;;;;;;5053072;28;20440;-91
2022/03/23 08:42:33;;;;;;;16.23;9.50;;;19.90;61.00;;;;;;5037865;28;20484;-92
2022/03/23 08:44:59;;;;;;;28.17;9.93;;;20.90;59.80;;;;;;5029298;28;20440;-90
2022/03/23 08:47:25;;;;;;;18.20;9.07;;;21.80;59.00;;;;;;5025744;28;20510;-94
2022/03/23 08:49:50;;;;;;;21.90;8.97;;;22.60;57.10;;;;;;5034683;28;20187;-94
2022/03/23 08:52:16;;;;;;;13.60;9.23;;;23.60;56.30;;;;;;5049014;28;20474;-91
2022/03/23 08:54:42;;;;;;;17.00;9.97;;;24.40;54.80;;;;;;5032738;28;20217;-90
2022/03/23 08:57:09;;;;;;;22.97;8.87;;;24.90;53.00;;;;;;5031458;28;20209;-94
2022/03/23 08:59:35;;;;;;;20.77;9.40;;;25.40;53.20;;;;;;5030715;28;20435;-93
2022/03/23 09:02:01;;;;;;;15.97;8.47;;;25.80;53.10;;;;;;5025877;28;20490;-92
2022/03/23 09:04:27;;;;;;;16.77;9.23;;;26.30;52.90;;;;;;5026662;28;20952;-93
2022/03/23 09:06:53;;;;;;;14.77;9.07;;;26.70;52.00;;;;;;5024217;28;20424;-92
2022/03/23 09:09:18;;;;;;;22.93;9.50;;;27.00;51.20;;;;;;5027236;28;20529;-95
2022/03/23 09:11:44;;;;;;;14.00;7.90;;;27.30;51.40;;;;;;5033491;28;20185;-91
2022/03/23 09:14:12;;;;;;;23.90;8.57;;;27.40;51.00;;;;;;5032415;28;20429;-94
2022/03/23 09:16:38;;;;;;;17.37;8.90;;;27.50;50.50;;;;;;5049623;28;20525;-93
2022/03/23 09:19:04;;;;;;;15.73;7.97;;;27.60;49.90;;;;;;5047342;28;20432;-95
2022/03/23 09:21:29;;;;;;;13.20;8.17;;;27.70;50.10;;;;;;5035692;28;20419;-92
2022/03/23 09:23:55;;;;;;;18.93;8.27;;;27.70;50.00;;;;;;5033430;28;20219;-92
2022/03/23 09:26:21;;;;;;;18.20;9.00;;;27.60;49.90;;;;;;5022891;28;20520;-93
2022/03/23 09:28:47;;;;;;;19.93;9.10;;;27.50;50.10;;;;;;5040598;28;20204;-93
2022/03/23 09:31:13;;;;;;;18.33;8.83;;;27.40;51.10;;;;;;5031836;28;20180;-92
2022/03/23 09:33:39;;;;;;;18.77;8.80;;;27.40;50.30;;;;;;5040454;28;20475;-95
2022/03/23 09:36:05;;;;;;;16.30;8.43;;;27.40;49.80;;;;;;5044711;28;20222;-91
2022/03/23 09:38:31;;;;;;;19.83;8.83;;;27.50;49.30;;;;;;5054786;28;20465;-93
2022/03/23 09:40:57;;;;;;;15.53;8.37;;;27.50;49.30;;;;;;5037365;28;20425;-94
2022/03/23 09:43:24;;;;;;;15.13;8.23;;;27.40;48.70;;;;;;5041985;28;20220;-92
2022/03/23 09:45:51;;;;;;;15.93;8.00;;;27.20;48.10;;;;;;5037259;28;20429;-92
2022/03/23 09:48:21;;;;;;;21.63;7.90;;;27.10;48.40;;;;;;5030174;28;20453;-95
2022/03/23 09:50:50;;;;;;;11.63;8.00;;;26.90;48.50;;;;;;5039202;28;20436;-95
2022/03/23 09:53:16;;;;;;;15.70;7.90;;;27.10;48.60;;;;;;5022201;28;20445;-93
2022/03/23 09:55:45;;;;;;;17.47;8.63;;;27.00;48.40;;;;;;5047238;28;20416;-93
2022/03/23 09:58:11;;;;;;;15.50;8.40;;;27.10;49.00;;;;;;5053406;28;20463;-92
2022/03/23 10:00:44;;;;;;;16.77;8.50;;;27.20;48.60;;;;;;5050966;28;20488;-95
2022/03/23 10:03:12;;;;;;;16.03;9.73;;;27.20;48.00;;;;;;5030599;28;20492;-95
2022/03/23 10:05:53;;;;;;;13.43;8.33;;;27.30;48.20;;;;;;5029862;28;20414;-95
2022/03/23 10:08:47;;;;;;;12.60;7.03;;;27.20;48.30;;;;;;5025689;28;20850;-93
2022/03/23 10:11:53;;;;;;;15.37;8.10;;;27.10;48.60;;;;;;5042796;28;20690;-93
2022/03/23 10:14:56;;;;;;;17.57;8.87;;;26.70;47.60;;;;;;5041832;28;20457;-94
2022/03/23 10:18:12;;;;;;;22.20;8.03;;;26.40;48.60;;;;;;5027580;28;20675;-95
2022/03/23 10:20:38;;;;;;;16.63;8.17;;;26.00;48.70;;;;;;5023680;28;20795;-95
2022/03/23 10:23:06;;;;;;;15.17;7.00;;;25.60;49.20;;;;;;5050676;28;20482;-93
2022/03/23 10:25:32;;;;;;;14.83;7.27;;;25.20;50.20;;;;;;5051382;28;20170;-92
2022/03/23 10:27:58;;;;;;;22.20;7.43;;;24.70;49.30;;;;;;5027677;28;20744;-95
2022/03/23 10:30:34;;;;;;;14.80;7.27;;;24.30;49.90;;;;;;5029028;28;20815;-95
2022/03/23 10:33:06;;;;;;;14.93;7.97;;;23.90;50.20;;;;;;5035061;28;20998;-95
2022/03/23 10:35:36;;;;;;;14.43;7.73;;;23.50;50.40;;;;;;5037431;28;20421;-92
2022/03/23 10:38:22;;;;;;;11.20;7.00;;;23.10;49.30;;;;;;5034984;28;20459;-93
2022/03/23 10:40:51;;;;;;;7.77;6.73;;;22.80;49.80;;;;;;5052092;28;20459;-95
2022/03/23 10:43:20;;;;;;;8.60;6.50;;;22.50;50.60;;;;;;5042529;28;20561;-94
2022/03/23 10:45:47;;;;;;;12.90;7.00;;;22.30;50.30;;;;;;5049966;28;20443;-96
2022/03/23 10:48:18;;;;;;;12.67;7.37;;;22.20;51.10;;;;;;5055644;28;20438;-95
2022/03/23 10:50:55;;;;;;;13.63;7.47;;;22.20;50.60;;;;;;5040686;28;20419;-92
2022/03/23 10:53:32;;;;;;;17.97;7.50;;;22.00;50.40;;;;;;5021132;28;20462;-95
2022/03/23 10:55:59;;;;;;;25.30;14.27;;;22.00;51.30;;;;;;5022709;28;20442;-95
2022/03/23 10:58:26;;;;;;;11.57;7.17;;;21.90;51.30;;;;;;5035601;28;21019;-96
2022/03/23 11:01:00;;;;;;;9.40;6.80;;;21.70;51.70;;;;;;5036314;28;20647;-95
2022/03/23 11:03:41;;;;;;;16.60;8.33;;;21.60;51.70;;;;;;5034546;28;20873;-92
2022/03/23 11:06:12;;;;;;;12.77;7.27;;;21.40;51.60;;;;;;5031637;28;20445;-93
2022/03/23 11:08:39;;;;;;;13.00;7.07;;;21.40;51.90;;;;;;5037798;28;20454;-95
2022/03/23 11:16:49;;;;;;;12.63;7.37;;;21.40;51.70;;;;;;5050054;28;20470;-96
2022/03/23 11:19:24;;;;;;;7.67;5.70;;;21.40;51.60;;;;;;5068959;28;20442;-95
2022/03/23 11:22:12;;;;;;;11.03;5.43;;;21.40;50.40;;;;;;5060799;28;20441;-92
2022/03/23 11:24:42;;;;;;;13.47;6.47;;;21.50;50.90;;;;;;5057292;28;20448;-92
2022/03/23 11:27:10;;;;;;;10.90;6.60;;;21.60;51.80;;;;;;5057957;28;20782;-91
2022/03/23 11:29:39;;;;;;;13.83;6.60;;;21.70;49.90;;;;;;5038487;28;20466;-96
2022/03/23 11:32:12;;;;;;;13.03;7.10;;;21.70;49.70;;;;;;5045290;28;20513;-93
2022/03/23 11:34:43;;;;;;;14.37;6.90;;;21.80;49.80;;;;;;5051024;28;20419;-95
2022/03/23 11:37:09;;;;;;;9.53;6.50;;;21.80;49.80;;;;;;5042999;28;20426;-95
2022/03/23 11:39:36;;;;;;;12.60;6.47;;;21.80;49.90;;;;;;5051510;28;20433;-93
2022/03/23 11:42:03;;;;;;;13.00;7.03;;;21.80;50.00;;;;;;5051679;28;20458;-92
2022/03/23 11:44:30;;;;;;;8.97;6.40;;;21.80;51.40;;;;;;5026570;28;20415;-93
2022/03/23 11:47:19;;;;;;;13.00;6.60;;;21.90;51.00;;;;;;5030492;28;20474;-94
2022/03/23 11:49:59;;;;;;;8.33;5.10;;;21.90;49.60;;;;;;5054674;28;20421;-92
2022/03/23 11:52:44;;;;;;;5.70;4.97;;;21.90;51.30;;;;;;5046890;28;20451;-92
2022/03/23 11:58:23;;;;;;;11.27;5.90;;;21.90;47.00;;;;;;5042483;28;20799;-92
2022/03/23 12:00:54;;;;;;;9.67;5.20;;;21.90;47.40;;;;;;5047853;28;20445;-92
2022/03/23 12:04:00;;;;;;;7.70;5.37;;;21.90;46.90;;;;;;5027163;28;20545;-94
2022/03/23 12:06:42;;;;;;;7.87;5.40;;;21.90;47.10;;;;;;5027870;28;20445;-95
2022/03/23 12:09:28;;;;;;;9.07;6.00;;;21.90;48.30;;;;;;5033423;28;20438;-94
2022/03/23 12:11:54;;;;;;;12.03;6.23;;;22.00;47.70;;;;;;5035053;28;20466;-94
2022/03/23 12:14:24;;;;;;;12.17;5.83;;;22.00;47.20;;;;;;5036910;28;20885;-92
2022/03/23 12:16:52;;;;;;;16.63;5.70;;;22.00;47.30;;;;;;5034620;28;20482;-92
2022/03/23 12:19:31;;;;;;;9.77;6.10;;;22.10;47.40;;;;;;5041539;28;20446;-94
2022/03/23 12:22:06;;;;;;;12.33;6.20;;;22.10;47.00;;;;;;5026385;28;20474;-92
2022/03/23 12:24:41;;;;;;;8.40;5.90;;;22.10;46.70;;;;;;5032056;28;20947;-95
2022/03/23 12:27:26;;;;;;;8.50;5.87;;;22.00;46.90;;;;;;5033508;28;20446;-92
2022/03/23 12:29:52;;;;;;;8.20;5.80;;;22.00;47.60;;;;;;5029548;28;20424;-94
2022/03/23 12:32:18;;;;;;;11.43;5.63;;;22.00;47.70;;;;;;5027656;28;20455;-93
2022/03/23 12:34:45;;;;;;;8.30;5.40;;;22.10;47.50;;;;;;5029017;28;20593;-95
2022/03/23 12:37:16;;;;;;;10.13;5.93;;;22.10;47.40;;;;;;5035024;28;20483;-92
2022/03/23 12:39:44;;;;;;;10.97;5.70;;;22.10;48.40;;;;;;5036845;28;20827;-92
2022/03/23 12:42:13;;;;;;;9.23;5.37;;;22.10;47.80;;;;;;5025898;28;20463;-91
2022/03/23 12:44:41;;;;;;;7.50;5.80;;;22.00;47.10;;;;;;5051862;28;20942;-91
2022/03/23 12:47:10;;;;;;;8.67;5.70;;;22.00;47.00;;;;;;5044799;28;20438;-92
2022/03/23 12:58:30;;;;;;;8.43;6.53;;;22.00;47.20;;;;;;5052130;28;20493;-90
2022/03/23 13:01:08;;;;;;;10.43;6.37;;;22.00;47.40;;;;;;5041013;28;20431;-92
2022/03/23 13:03:42;;;;;;;16.53;5.87;;;22.00;47.30;;;;;;5051867;28;20974;-94
2022/03/23 13:06:11;;;;;;;10.27;6.47;;;22.10;47.30;;;;;;5030816;28;20467;-94
2022/03/23 13:08:49;;;;;;;8.60;5.80;;;22.10;47.90;;;;;;5030356;28;20455;-90
2022/03/23 13:11:21;;;;;;;7.80;6.13;;;22.10;48.40;;;;;;5031218;28;20430;-94
2022/03/23 13:13:53;;;;;;;11.23;6.67;;;22.10;47.70;;;;;;5032509;28;20463;-91